sensor_id;sensor_type;location;lat;lon;timestamp;pressure;altitude;pressure_sealevel;temperature;humidity
10712;BME280;5407;51.234;6.804;2022-12-07T00:00:03;101189.63;;;22.79;40.31
10712;BME280;5407;51.234;6.804;2022-12-07T00:02:30;101186.88;;;22.79;40.50
10712;BME280;5407;51.234;6.804;2022-12-07T00:04:59;101191.97;;;22.80;40.43
10712;BME280;5407;51.234;6.804;2022-12-07T00:07:26;101191.53;;;22.82;40.47
10712;BME280;5407;51.234;6.804;2022-12-07T00:09:52;101188.78;;;22.82;40.32
10712;BME280;5407;51.234;6.804;2022-12-07T00:12:19;101191.91;;;22.84;40.58
10712;BME280;5407;51.234;6.804;2022-12-07T00:14:46;101188.78;;;22.82;40.58
10712;BME280;5407;51.234;6.804;2022-12-07T00:17:13;101202.19;;;22.80;40.56
10712;BME280;5407;51.234;6.804;2022-12-07T00:19:40;101193.94;;;22.80;40.47
10712;BME280;5407;51.234;6.804;2022-12-07T00:22:08;101189.25;;;22.77;40.53
10712;BME280;5407;51.234;6.804;2022-12-07T00:24:35;101192.00;;;22.77;40.46
10712;BME280;5407;51.234;6.804;2022-12-07T00:27:02;101194.38;;;22.75;40.59
10712;BME280;5407;51.234;6.804;2022-12-07T00:29:29;101194.75;;;22.77;40.63
10712;BME280;5407;51.234;6.804;2022-12-07T00:31:55;101195.19;;;22.75;40.66
10712;BME280;5407;51.234;6.804;2022-12-07T00:34:22;101192.47;;;22.72;40.81
10712;BME280;5407;51.234;6.804;2022-12-07T00:36:50;101192.81;;;22.74;40.76
10712;BME280;5407;51.234;6.804;2022-12-07T00:39:18;101182.66;;;22.71;40.54
10712;BME280;5407;51.234;6.804;2022-12-07T00:41:45;101189.34;;;22.70;40.70
10712;BME280;5407;51.234;6.804;2022-12-07T00:44:12;101184.66;;;22.67;40.69
10712;BME280;5407;51.234;6.804;2022-12-07T00:46:39;101179.53;;;22.69;40.60
10712;BME280;5407;51.234;6.804;2022-12-07T00:49:06;101178.78;;;22.65;40.73
10712;BME280;5407;51.234;6.804;2022-12-07T00:51:33;101177.53;;;22.69;40.62
10712;BME280;5407;51.234;6.804;2022-12-07T00:53:59;101179.16;;;22.67;40.63
10712;BME280;5407;51.234;6.804;2022-12-07T00:56:28;101174.78;;;22.69;40.65
10712;BME280;5407;51.234;6.804;2022-12-07T00:58:56;101179.56;;;22.65;40.57
10712;BME280;5407;51.234;6.804;2022-12-07T01:01:25;101177.16;;;22.67;40.69
10712;BME280;5407;51.234;6.804;2022-12-07T01:03:53;101173.28;;;22.65;40.68
10712;BME280;5407;51.234;6.804;2022-12-07T01:06:21;101167.78;;;22.65;40.66
10712;BME280;5407;51.234;6.804;2022-12-07T01:08:49;101170.94;;;22.63;40.78
10712;BME280;5407;51.234;6.804;2022-12-07T01:11:17;101159.94;;;22.63;40.67
10712;BME280;5407;51.234;6.804;2022-12-07T01:13:46;101171.38;;;22.62;40.79
10712;BME280;5407;51.234;6.804;2022-12-07T01:16:15;101173.28;;;22.65;40.75
10712;BME280;5407;51.234;6.804;2022-12-07T01:18:45;101175.94;;;22.72;41.20
10712;BME280;5407;51.234;6.804;2022-12-07T01:21:14;101182.56;;;22.78;41.24
10712;BME280;5407;51.234;6.804;2022-12-07T01:23:42;101172.66;;;22.84;40.99
10712;BME280;5407;51.234;6.804;2022-12-07T01:26:11;101177.69;;;22.89;40.57
10712;BME280;5407;51.234;6.804;2022-12-07T01:28:39;101168.63;;;22.92;40.49
10712;BME280;5407;51.234;6.804;2022-12-07T01:31:08;101165.88;;;22.92;40.48
10712;BME280;5407;51.234;6.804;2022-12-07T01:33:38;101168.22;;;22.93;40.41
10712;BME280;5407;51.234;6.804;2022-12-07T01:36:07;101169.81;;;22.91;40.55
10712;BME280;5407;51.234;6.804;2022-12-07T01:38:34;101171.38;;;22.92;40.41
10712;BME280;5407;51.234;6.804;2022-12-07T01:41:01;101171.38;;;22.92;40.42
10712;BME280;5407;51.234;6.804;2022-12-07T01:43:30;101176.13;;;22.88;40.38
10712;BME280;5407;51.234;6.804;2022-12-07T01:45:57;101176.13;;;22.88;40.47
10712;BME280;5407;51.234;6.804;2022-12-07T01:48:28;101176.97;;;22.85;40.60
10712;BME280;5407;51.234;6.804;2022-12-07T01:51:01;101172.66;;;22.84;40.52
10712;BME280;5407;51.234;6.804;2022-12-07T01:53:29;101163.66;;;22.80;40.56
10712;BME280;5407;51.234;6.804;2022-12-07T01:55:58;101166.13;;;22.74;40.85
10712;BME280;5407;51.234;6.804;2022-12-07T01:58:26;101164.59;;;22.70;40.90
10712;BME280;5407;51.234;6.804;2022-12-07T02:00:53;101171.66;;;22.71;40.88
10712;BME280;5407;51.234;6.804;2022-12-07T02:03:22;101164.59;;;22.70;40.93
10712;BME280;5407;51.234;6.804;2022-12-07T02:05:53;101155.16;;;22.67;40.96
10712;BME280;5407;51.234;6.804;2022-12-07T02:08:20;101159.09;;;22.70;40.91
10712;BME280;5407;51.234;6.804;2022-12-07T02:10:48;101158.34;;;22.66;40.95
10712;BME280;5407;51.234;6.804;2022-12-07T02:13:17;101161.47;;;22.68;40.83
10712;BME280;5407;51.234;6.804;2022-12-07T02:16:08;101157.16;;;22.67;40.96
10712;BME280;5407;51.234;6.804;2022-12-07T02:18:44;101156.78;;;22.65;40.84
10712;BME280;5407;51.234;6.804;2022-12-07T02:21:22;101152.06;;;22.65;40.94
10712;BME280;5407;51.234;6.804;2022-12-07T02:24:11;101154.41;;;22.67;41.00
10712;BME280;5407;51.234;6.804;2022-12-07T02:29:45;101151.28;;;22.65;40.73
10712;BME280;5407;51.234;6.804;2022-12-07T02:32:16;101157.53;;;22.69;40.82
10712;BME280;5407;51.234;6.804;2022-12-07T02:34:49;101159.91;;;22.67;40.78
10712;BME280;5407;51.234;6.804;2022-12-07T02:37:29;101165.41;;;22.67;40.84
10712;BME280;5407;51.234;6.804;2022-12-07T02:40:04;101160.28;;;22.69;40.75
10712;BME280;5407;51.234;6.804;2022-12-07T02:42:36;101163.03;;;22.69;40.77
10712;BME280;5407;51.234;6.804;2022-12-07T02:45:08;101162.19;;;22.72;40.63
10712;BME280;5407;51.234;6.804;2022-12-07T02:47:37;101159.84;;;22.70;40.61
10712;BME280;5407;51.234;6.804;2022-12-07T02:50:05;101154.34;;;22.70;40.65
10712;BME280;5407;51.234;6.804;2022-12-07T02:52:33;101161.38;;;22.75;40.47
10712;BME280;5407;51.234;6.804;2022-12-07T02:54:59;101153.50;;;22.77;40.63
10712;BME280;5407;51.234;6.804;2022-12-07T02:57:40;101152.28;;;22.78;40.62
10712;BME280;5407;51.234;6.804;2022-12-07T03:00:11;101151.09;;;22.79;40.66
10712;BME280;5407;51.234;6.804;2022-12-07T03:02:48;101155.41;;;22.80;40.57
10712;BME280;5407;51.234;6.804;2022-12-07T03:05:44;101153.84;;;22.79;40.68
10712;BME280;5407;51.234;6.804;2022-12-07T03:08:21;101156.97;;;22.81;40.60
10712;BME280;5407;51.234;6.804;2022-12-07T03:10:55;101151.06;;;22.82;40.58
10712;BME280;5407;51.234;6.804;2022-12-07T03:13:28;101156.88;;;22.88;40.38
10712;BME280;5407;51.234;6.804;2022-12-07T03:16:02;101158.06;;;22.87;40.58
10712;BME280;5407;51.234;6.804;2022-12-07T03:18:36;101164.41;;;22.84;40.58
10712;BME280;5407;51.234;6.804;2022-12-07T03:21:09;101163.56;;;22.87;40.44
10712;BME280;5407;51.234;6.804;2022-12-07T03:23:39;101155.03;;;22.81;40.95
10712;BME280;5407;51.234;6.804;2022-12-07T03:26:09;101164.84;;;22.79;40.77
10712;BME280;5407;51.234;6.804;2022-12-07T03:28:42;101163.66;;;22.80;40.83
10712;BME280;5407;51.234;6.804;2022-12-07T03:31:14;101157.44;;;22.76;40.96
10712;BME280;5407;51.234;6.804;2022-12-07T03:33:49;101160.97;;;22.76;40.96
10712;BME280;5407;51.234;6.804;2022-12-07T03:36:21;101159.81;;;22.74;40.94
10712;BME280;5407;51.234;6.804;2022-12-07T03:38:55;101150.47;;;22.68;40.94
10712;BME280;5407;51.234;6.804;2022-12-07T03:41:27;101159.06;;;22.73;41.00
10712;BME280;5407;51.234;6.804;2022-12-07T03:43:55;101153.56;;;22.70;41.05
10712;BME280;5407;51.234;6.804;2022-12-07T03:46:33;101160.63;;;22.71;40.86
10712;BME280;5407;51.234;6.804;2022-12-07T03:49:07;101155.13;;;22.71;41.02
10712;BME280;5407;51.234;6.804;2022-12-07T03:51:40;101146.06;;;22.74;40.89
10712;BME280;5407;51.234;6.804;2022-12-07T03:54:12;101147.25;;;22.73;40.88
10712;BME280;5407;51.234;6.804;2022-12-07T03:56:40;101152.03;;;22.69;40.88
10712;BME280;5407;51.234;6.804;2022-12-07T03:59:08;101159.09;;;22.70;41.04
10712;BME280;5407;51.234;6.804;2022-12-07T04:01:37;101150.84;;;22.66;40.99
10712;BME280;5407;51.234;6.804;2022-12-07T04:04:04;101152.84;;;22.66;40.96
10712;BME280;5407;51.234;6.804;2022-12-07T04:06:31;101153.97;;;22.68;40.91
10712;BME280;5407;51.234;6.804;2022-12-07T04:08:58;101151.28;;;22.65;41.11
10712;BME280;5407;51.234;6.804;2022-12-07T04:11:25;101157.97;;;22.64;40.92
10712;BME280;5407;51.234;6.804;2022-12-07T04:13:51;101152.41;;;22.67;40.98
10712;BME280;5407;51.234;6.804;2022-12-07T04:16:37;101159.41;;;22.75;40.92
10712;BME280;5407;51.234;6.804;2022-12-07T04:19:04;101161.00;;;22.73;40.91
10712;BME280;5407;51.234;6.804;2022-12-07T04:21:31;101157.06;;;22.74;40.97
10712;BME280;5407;51.234;6.804;2022-12-07T04:23:57;101152.75;;;22.73;41.05
10712;BME280;5407;51.234;6.804;2022-12-07T04:26:24;101154.28;;;22.77;41.09
10712;BME280;5407;51.234;6.804;2022-12-07T04:28:51;101148.34;;;22.79;40.97
10712;BME280;5407;51.234;6.804;2022-12-07T04:31:18;101146.44;;;22.76;41.10
10712;BME280;5407;51.234;6.804;2022-12-07T04:33:46;101143.22;;;22.81;40.94
10712;BME280;5407;51.234;6.804;2022-12-07T04:36:13;101149.53;;;22.78;41.14
10712;BME280;5407;51.234;6.804;2022-12-07T04:38:40;101147.63;;;22.75;41.05
10712;BME280;5407;51.234;6.804;2022-12-07T04:41:07;101143.31;;;22.74;41.11
10712;BME280;5407;51.234;6.804;2022-12-07T04:43:35;101148.81;;;22.74;41.17
10712;BME280;5407;51.234;6.804;2022-12-07T04:46:02;101147.25;;;22.73;41.16
10712;BME280;5407;51.234;6.804;2022-12-07T04:48:29;101140.56;;;22.74;41.12
10712;BME280;5407;51.234;6.804;2022-12-07T04:50:57;101139.00;;;22.73;41.15
10712;BME280;5407;51.234;6.804;2022-12-07T04:53:24;101136.25;;;22.73;41.11
10712;BME280;5407;51.234;6.804;2022-12-07T04:55:51;101123.69;;;22.72;41.06
10712;BME280;5407;51.234;6.804;2022-12-07T04:58:18;101123.72;;;22.68;41.12
10712;BME280;5407;51.234;6.804;2022-12-07T05:00:44;101126.06;;;22.70;41.16
10712;BME280;5407;51.234;6.804;2022-12-07T05:03:11;101137.91;;;22.67;41.17
10712;BME280;5407;51.234;6.804;2022-12-07T05:05:40;101137.47;;;22.68;41.08
10712;BME280;5407;51.234;6.804;2022-12-07T05:08:08;101135.91;;;22.67;41.25
10712;BME280;5407;51.234;6.804;2022-12-07T05:10:35;101137.06;;;22.70;41.13
10712;BME280;5407;51.234;6.804;2022-12-07T05:13:02;101137.91;;;22.67;41.22
10712;BME280;5407;51.234;6.804;2022-12-07T05:15:29;101132.41;;;22.67;41.13
10712;BME280;5407;51.234;6.804;2022-12-07T05:17:56;101137.91;;;22.67;41.22
10712;BME280;5407;51.234;6.804;2022-12-07T05:20:23;101148.53;;;22.65;41.08
10712;BME280;5407;51.234;6.804;2022-12-07T05:22:49;101150.91;;;22.63;41.17
10712;BME280;5407;51.234;6.804;2022-12-07T05:25:18;101152.13;;;22.62;41.32
10712;BME280;5407;51.234;6.804;2022-12-07T05:27:45;101149.00;;;22.60;41.47
10712;BME280;5407;51.234;6.804;2022-12-07T05:30:13;101150.94;;;22.59;41.31
10712;BME280;5407;51.234;6.804;2022-12-07T05:32:39;101150.59;;;22.57;41.19
10712;BME280;5407;51.234;6.804;2022-12-07T05:35:07;101149.81;;;22.57;41.25
10712;BME280;5407;51.234;6.804;2022-12-07T05:37:34;101142.38;;;22.54;41.29
10712;BME280;5407;51.234;6.804;2022-12-07T05:40:01;101140.47;;;22.51;41.32
10712;BME280;5407;51.234;6.804;2022-12-07T05:42:29;101131.81;;;22.49;41.38
10712;BME280;5407;51.234;6.804;2022-12-07T05:44:56;101138.09;;;22.49;41.32
10712;BME280;5407;51.234;6.804;2022-12-07T05:47:23;101138.13;;;22.46;41.47
10712;BME280;5407;51.234;6.804;2022-12-07T05:49:50;101139.69;;;22.47;41.54
10712;BME280;5407;51.234;6.804;2022-12-07T05:52:17;101130.66;;;22.50;41.50
10712;BME280;5407;51.234;6.804;2022-12-07T05:54:43;101137.31;;;22.49;41.45
10712;BME280;5407;51.234;6.804;2022-12-07T05:57:10;101131.03;;;22.52;41.43
10712;BME280;5407;51.234;6.804;2022-12-07T05:59:38;101127.03;;;22.56;41.39
10712;BME280;5407;51.234;6.804;2022-12-07T06:02:07;101138.03;;;22.56;41.37
10712;BME280;5407;51.234;6.804;2022-12-07T06:04:35;101143.50;;;22.60;41.37
10712;BME280;5407;51.234;6.804;2022-12-07T06:07:02;101130.09;;;22.62;41.42
10712;BME280;5407;51.234;6.804;2022-12-07T06:09:29;101134.88;;;22.58;41.48
10712;BME280;5407;51.234;6.804;2022-12-07T06:11:57;101136.44;;;22.59;41.48
10712;BME280;5407;51.234;6.804;2022-12-07T06:14:43;101139.56;;;22.61;41.37
10712;BME280;5407;51.234;6.804;2022-12-07T06:17:10;101130.09;;;22.62;41.46
10712;BME280;5407;51.234;6.804;2022-12-07T06:19:37;101134.81;;;22.61;41.41
10712;BME280;5407;51.234;6.804;2022-12-07T06:22:04;101145.06;;;22.61;41.46
10712;BME280;5407;51.234;6.804;2022-12-07T06:24:32;101138.38;;;22.58;41.60
10712;BME280;5407;51.234;6.804;2022-12-07T06:26:59;101143.94;;;22.55;41.57
10712;BME280;5407;51.234;6.804;2022-12-07T06:29:26;101143.94;;;22.55;41.64
10712;BME280;5407;51.234;6.804;2022-12-07T06:31:54;101153.75;;;22.56;41.67
10712;BME280;5407;51.234;6.804;2022-12-07T06:34:22;101140.38;;;22.58;41.48
10712;BME280;5407;51.234;6.804;2022-12-07T06:36:50;101144.78;;;22.52;41.43
10712;BME280;5407;51.234;6.804;2022-12-07T06:39:19;101147.88;;;22.54;41.54
10712;BME280;5407;51.234;6.804;2022-12-07T06:41:46;101143.97;;;22.51;41.59
10712;BME280;5407;51.234;6.804;2022-12-07T06:44:13;101147.53;;;22.48;41.68
10712;BME280;5407;51.234;6.804;2022-12-07T06:46:40;101140.47;;;22.51;41.49
10712;BME280;5407;51.234;6.804;2022-12-07T06:49:08;101145.56;;;22.49;41.55
10712;BME280;5407;51.234;6.804;2022-12-07T06:51:35;101140.88;;;22.46;41.60
10712;BME280;5407;51.234;6.804;2022-12-07T06:54:06;101147.94;;;22.47;41.66
10712;BME280;5407;51.234;6.804;2022-12-07T06:56:33;101142.88;;;22.45;41.62
10712;BME280;5407;51.234;6.804;2022-12-07T06:59:00;101148.75;;;22.47;41.53
10712;BME280;5407;51.234;6.804;2022-12-07T07:01:27;101137.31;;;22.49;41.33
10712;BME280;5407;51.234;6.804;2022-12-07T07:03:54;101145.19;;;22.47;41.57
10712;BME280;5407;51.234;6.804;2022-12-07T07:06:22;101144.44;;;22.46;41.44
10712;BME280;5407;51.234;6.804;2022-12-07T07:08:49;101146.38;;;22.46;41.46
10712;BME280;5407;51.234;6.804;2022-12-07T07:11:16;101147.56;;;22.45;41.56
10712;BME280;5407;51.234;6.804;2022-12-07T07:13:44;101146.44;;;22.42;41.62
10712;BME280;5407;51.234;6.804;2022-12-07T07:16:11;101144.44;;;22.43;41.63
10712;BME280;5407;51.234;6.804;2022-12-07T07:18:38;101146.84;;;22.41;41.61
10712;BME280;5407;51.234;6.804;2022-12-07T07:21:05;101142.91;;;22.42;41.62
10712;BME280;5407;51.234;6.804;2022-12-07T07:23:33;101148.41;;;22.42;41.60
10712;BME280;5407;51.234;6.804;2022-12-07T07:26:00;101144.44;;;22.43;41.52
10712;BME280;5407;51.234;6.804;2022-12-07T07:28:27;101151.50;;;22.44;41.77
10712;BME280;5407;51.234;6.804;2022-12-07T07:30:53;101154.63;;;22.46;41.77
10712;BME280;5407;51.234;6.804;2022-12-07T07:33:20;101156.16;;;22.50;41.69
10712;BME280;5407;51.234;6.804;2022-12-07T07:35:47;101157.31;;;22.53;41.67
10712;BME280;5407;51.234;6.804;2022-12-07T07:38:14;101157.69;;;22.55;41.48
10712;BME280;5407;51.234;6.804;2022-12-07T07:40:42;101156.91;;;22.54;41.74
10712;BME280;5407;51.234;6.804;2022-12-07T07:43:09;101155.31;;;22.57;41.54
10712;BME280;5407;51.234;6.804;2022-12-07T07:45:36;101162.38;;;22.58;41.54
10712;BME280;5407;51.234;6.804;2022-12-07T07:48:03;101154.50;;;22.60;41.51
10712;BME280;5407;51.234;6.804;2022-12-07T07:50:30;101159.19;;;22.59;41.81
10712;BME280;5407;51.234;6.804;2022-12-07T07:52:57;101160.75;;;22.60;41.62
10712;BME280;5407;51.234;6.804;2022-12-07T07:55:24;101160.34;;;22.62;41.58
10712;BME280;5407;51.234;6.804;2022-12-07T07:57:53;101158.81;;;22.61;41.51
10712;BME280;5407;51.234;6.804;2022-12-07T08:00:21;101157.59;;;22.62;41.39
10712;BME280;5407;51.234;6.804;2022-12-07T08:02:48;101164.31;;;22.61;41.50
10712;BME280;5407;51.234;6.804;2022-12-07T08:05:16;101167.88;;;22.58;41.52
10712;BME280;5407;51.234;6.804;2022-12-07T08:07:42;101178.50;;;22.56;41.48
10712;BME280;5407;51.234;6.804;2022-12-07T08:10:11;101174.19;;;22.55;41.43
10712;BME280;5407;51.234;6.804;2022-12-07T08:12:39;101175.03;;;22.52;41.45
10712;BME280;5407;51.234;6.804;2022-12-07T08:15:30;101169.09;;;22.53;41.31
10712;BME280;5407;51.234;6.804;2022-12-07T08:17:57;101178.97;;;22.51;41.36
10712;BME280;5407;51.234;6.804;2022-12-07T08:20:24;101183.69;;;22.47;41.41
10712;BME280;5407;51.234;6.804;2022-12-07T08:22:50;101179.75;;;22.48;41.48
10712;BME280;5407;51.234;6.804;2022-12-07T08:25:18;101186.88;;;22.45;41.38
10712;BME280;5407;51.234;6.804;2022-12-07T08:27:44;101183.31;;;22.45;41.52
10712;BME280;5407;51.234;6.804;2022-12-07T08:30:12;101182.56;;;22.41;41.45
10712;BME280;5407;51.234;6.804;2022-12-07T08:32:40;101185.75;;;22.39;41.66
10712;BME280;5407;51.234;6.804;2022-12-07T08:35:08;101183.75;;;22.40;41.49
10712;BME280;5407;51.234;6.804;2022-12-07T08:37:35;101181.44;;;22.38;41.40
10712;BME280;5407;51.234;6.804;2022-12-07T08:40:03;101185.75;;;22.39;41.54
10712;BME280;5407;51.234;6.804;2022-12-07T08:42:30;101182.22;;;22.39;41.45
10712;BME280;5407;51.234;6.804;2022-12-07T08:45:04;101178.31;;;22.36;41.46
10712;BME280;5407;51.234;6.804;2022-12-07T08:47:32;101170.44;;;22.35;41.51
10712;BME280;5407;51.234;6.804;2022-12-07T08:50:01;101170.06;;;22.33;41.49
10712;BME280;5407;51.234;6.804;2022-12-07T08:52:29;101177.50;;;22.36;41.42
10712;BME280;5407;51.234;6.804;2022-12-07T08:54:56;101177.94;;;22.31;41.39
10712;BME280;5407;51.234;6.804;2022-12-07T08:57:24;101171.31;;;22.28;41.55
10712;BME280;5407;51.234;6.804;2022-12-07T08:59:51;101180.31;;;22.29;41.43
10712;BME280;5407;51.234;6.804;2022-12-07T09:02:18;101173.63;;;22.30;41.48
10712;BME280;5407;51.234;6.804;2022-12-07T09:04:44;101176.72;;;22.35;41.37
10712;BME280;5407;51.234;6.804;2022-12-07T09:07:13;101178.31;;;22.33;41.39
10712;BME280;5407;51.234;6.804;2022-12-07T09:09:40;101174.75;;;22.36;41.22
10712;BME280;5407;51.234;6.804;2022-12-07T09:12:07;101166.50;;;22.36;41.21
10712;BME280;5407;51.234;6.804;2022-12-07T09:14:34;101168.09;;;22.37;41.42
10712;BME280;5407;51.234;6.804;2022-12-07T09:17:11;101173.59;;;22.37;41.11
10712;BME280;5407;51.234;6.804;2022-12-07T09:19:39;101176.34;;;22.33;41.16
10712;BME280;5407;51.234;6.804;2022-12-07T09:22:08;101183.00;;;22.36;41.27
10712;BME280;5407;51.234;6.804;2022-12-07T09:24:36;101184.19;;;22.35;41.22
10712;BME280;5407;51.234;6.804;2022-12-07T09:27:03;101162.19;;;22.35;41.25
10712;BME280;5407;51.234;6.804;2022-12-07T09:29:30;101172.00;;;22.36;41.07
10712;BME280;5407;51.234;6.804;2022-12-07T09:31:57;101159.88;;;22.33;41.38
10712;BME280;5407;51.234;6.804;2022-12-07T09:34:23;101175.19;;;22.31;41.39
10712;BME280;5407;51.234;6.804;2022-12-07T09:36:52;101177.94;;;22.31;41.21
10712;BME280;5407;51.234;6.804;2022-12-07T09:39:19;101174.44;;;22.30;41.28
10712;BME280;5407;51.234;6.804;2022-12-07T09:41:47;101180.69;;;22.31;41.26
10712;BME280;5407;51.234;6.804;2022-12-07T09:44:24;101184.66;;;22.26;41.33
10712;BME280;5407;51.234;6.804;2022-12-07T09:46:52;101183.88;;;22.26;41.39
10712;BME280;5407;51.234;6.804;2022-12-07T09:49:20;101184.66;;;22.26;41.37
10712;BME280;5407;51.234;6.804;2022-12-07T09:52:00;101178.38;;;22.26;41.21
10712;BME280;5407;51.234;6.804;2022-12-07T09:54:28;101176.00;;;22.28;41.14
10712;BME280;5407;51.234;6.804;2022-12-07T09:56:58;101177.56;;;22.29;41.30
10712;BME280;5407;51.234;6.804;2022-12-07T09:59:25;101172.06;;;22.29;41.12
10712;BME280;5407;51.234;6.804;2022-12-07T10:01:52;101170.50;;;22.28;41.27
10712;BME280;5407;51.234;6.804;2022-12-07T10:04:21;101165.41;;;22.26;41.22
10712;BME280;5407;51.234;6.804;2022-12-07T10:06:48;101173.25;;;22.28;41.15
10712;BME280;5407;51.234;6.804;2022-12-07T10:09:18;101165.00;;;22.28;41.29
10712;BME280;5407;51.234;6.804;2022-12-07T10:12:00;101163.47;;;22.27;41.12
10712;BME280;5407;51.234;6.804;2022-12-07T10:14:29;101156.78;;;22.28;41.24
10712;BME280;5407;51.234;6.804;2022-12-07T10:16:57;101159.53;;;22.28;41.16
10712;BME280;5407;51.234;6.804;2022-12-07T10:19:26;101161.06;;;22.29;41.28
10712;BME280;5407;51.234;6.804;2022-12-07T10:22:04;101153.66;;;22.26;41.24
10712;BME280;5407;51.234;6.804;2022-12-07T10:24:32;101148.91;;;22.26;41.13
10712;BME280;5407;51.234;6.804;2022-12-07T10:27:00;101146.16;;;22.26;41.17
10712;BME280;5407;51.234;6.804;2022-12-07T10:29:29;101145.41;;;22.26;41.14
10712;BME280;5407;51.234;6.804;2022-12-07T10:31:59;101151.28;;;22.28;41.28
10712;BME280;5407;51.234;6.804;2022-12-07T10:34:28;101146.97;;;22.27;41.25
10712;BME280;5407;51.234;6.804;2022-12-07T10:37:13;101145.41;;;22.26;41.17
10712;BME280;5407;51.234;6.804;2022-12-07T10:39:43;101142.66;;;22.26;41.31
10712;BME280;5407;51.234;6.804;2022-12-07T10:42:18;101140.66;;;22.26;41.28
10712;BME280;5407;51.234;6.804;2022-12-07T10:44:45;101139.09;;;22.29;41.22
10712;BME280;5407;51.234;6.804;2022-12-07T10:47:25;101140.66;;;22.30;41.21
10712;BME280;5407;51.234;6.804;2022-12-07T10:53:18;101130.03;;;22.32;41.14
10712;BME280;5407;51.234;6.804;2022-12-07T10:56:05;101128.09;;;22.29;41.15
10712;BME280;5407;51.234;6.804;2022-12-07T10:58:48;101126.84;;;22.37;41.67
10712;BME280;5407;51.234;6.804;2022-12-07T11:01:24;101121.75;;;22.35;41.41
10712;BME280;5407;51.234;6.804;2022-12-07T11:04:13;101124.69;;;22.55;41.44
10712;BME280;5407;51.234;6.804;2022-12-07T11:06:51;101119.75;;;22.73;41.37
10712;BME280;5407;51.234;6.804;2022-12-07T11:09:48;101111.75;;;22.82;41.05
10712;BME280;5407;51.234;6.804;2022-12-07T11:12:27;101108.50;;;22.90;40.97
10712;BME280;5407;51.234;6.804;2022-12-07T11:15:01;101106.06;;;22.96;40.88
10712;BME280;5407;51.234;6.804;2022-12-07T11:17:36;101112.31;;;23.00;40.80
10712;BME280;5407;51.234;6.804;2022-12-07T11:20:18;101103.03;;;22.87;41.04
10712;BME280;5407;51.234;6.804;2022-12-07T11:22:53;101105.16;;;22.76;41.34
10712;BME280;5407;51.234;6.804;2022-12-07T11:25:25;101101.69;;;22.72;41.29
10712;BME280;5407;51.234;6.804;2022-12-07T11:28:11;101086.38;;;22.71;41.29
10712;BME280;5407;51.234;6.804;2022-12-07T11:30:48;101093.06;;;22.70;41.32
10712;BME280;5407;51.234;6.804;2022-12-07T11:33:22;101082.41;;;22.75;41.28
10712;BME280;5407;51.234;6.804;2022-12-07T11:36:01;101087.84;;;22.79;41.31
10712;BME280;5407;51.234;6.804;2022-12-07T11:38:37;101089.03;;;22.78;41.38
10712;BME280;5407;51.234;6.804;2022-12-07T11:41:09;101081.59;;;22.75;41.15
10712;BME280;5407;51.234;6.804;2022-12-07T11:43:52;101081.97;;;22.77;41.18
10712;BME280;5407;51.234;6.804;2022-12-07T11:46:24;101080.78;;;22.78;40.98
10712;BME280;5407;51.234;6.804;2022-12-07T11:48:57;101084.34;;;22.75;41.01
10712;BME280;5407;51.234;6.804;2022-12-07T11:51:28;101070.97;;;22.77;40.87
10712;BME280;5407;51.234;6.804;2022-12-07T11:53:59;101074.06;;;22.79;40.96
10712;BME280;5407;51.234;6.804;2022-12-07T11:56:30;101062.72;;;22.77;40.95
10712;BME280;5407;51.234;6.804;2022-12-07T11:59:08;101066.28;;;22.74;40.93
10712;BME280;5407;51.234;6.804;2022-12-07T12:01:49;101070.22;;;22.73;41.05
10712;BME280;5407;51.234;6.804;2022-12-07T12:04:25;101065.97;;;22.68;41.13
10712;BME280;5407;51.234;6.804;2022-12-07T12:06:54;101064.03;;;22.65;41.09
10712;BME280;5407;51.234;6.804;2022-12-07T12:09:25;101060.94;;;22.63;41.02
10712;BME280;5407;51.234;6.804;2022-12-07T12:12:21;101065.19;;;22.68;41.21
10712;BME280;5407;51.234;6.804;2022-12-07T12:15:03;101060.44;;;22.72;41.06
10712;BME280;5407;51.234;6.804;2022-12-07T12:17:50;101067.47;;;22.73;41.13
10712;BME280;5407;51.234;6.804;2022-12-07T12:20:26;101055.69;;;22.72;41.10
10712;BME280;5407;51.234;6.804;2022-12-07T12:22:59;101060.44;;;22.72;41.09
10712;BME280;5407;51.234;6.804;2022-12-07T12:25:29;101049.78;;;22.74;40.94
10712;BME280;5407;51.234;6.804;2022-12-07T12:27:58;101045.13;;;22.71;40.92
10712;BME280;5407;51.234;6.804;2022-12-07T12:30:32;101054.09;;;22.75;40.90
10712;BME280;5407;51.234;6.804;2022-12-07T12:33:15;101048.22;;;22.73;41.02
10712;BME280;5407;51.234;6.804;2022-12-07T12:35:45;101038.06;;;22.70;41.07
10712;BME280;5407;51.234;6.804;2022-12-07T12:38:30;101033.69;;;22.72;40.97
10712;BME280;5407;51.234;6.804;2022-12-07T12:40:59;101029.78;;;22.73;41.00
10712;BME280;5407;51.234;6.804;2022-12-07T12:43:44;101035.28;;;22.73;40.94
10712;BME280;5407;51.234;6.804;2022-12-07T12:46:50;101023.88;;;22.71;40.97
10712;BME280;5407;51.234;6.804;2022-12-07T12:49:55;101027.78;;;22.74;40.98
10712;BME280;5407;51.234;6.804;2022-12-07T12:52:55;101021.44;;;22.77;41.09
10712;BME280;5407;51.234;6.804;2022-12-07T12:55:47;101022.66;;;22.76;41.13
10712;BME280;5407;51.234;6.804;2022-12-07T12:58:30;101025.03;;;22.74;41.24
10712;BME280;5407;51.234;6.804;2022-12-07T13:04:29;101021.59;;;22.66;41.52
10712;BME280;5407;51.234;6.804;2022-12-07T13:07:00;101016.16;;;22.63;41.66
10712;BME280;5407;51.234;6.804;2022-12-07T13:09:29;101020.94;;;22.59;41.60
10712;BME280;5407;51.234;6.804;2022-12-07T13:12:01;101020.56;;;22.57;41.85
10712;BME280;5407;51.234;6.804;2022-12-07T13:14:43;101015.53;;;22.52;41.82
10712;BME280;5407;51.234;6.804;2022-12-07T13:17:10;101010.44;;;22.50;42.06
10712;BME280;5407;51.234;6.804;2022-12-07T13:19:58;101013.97;;;22.51;42.03
10712;BME280;5407;51.234;6.804;2022-12-07T13:22:48;101004.78;;;22.61;42.04
10712;BME280;5407;51.234;6.804;2022-12-07T13:25:22;101005.88;;;22.67;41.94
10712;BME280;5407;51.234;6.804;2022-12-07T13:27:57;100998.72;;;22.73;41.75